createdAt,value
2023-02-19T00:00:23.784Z,98235.59
2023-02-19T00:01:47.694Z,98232.63
2023-02-19T00:02:52.654Z,98233.66
2023-02-19T00:03:58.217Z,98228.88
2023-02-19T00:05:01.073Z,98232.53
2023-02-19T00:06:09.455Z,98238.53
2023-02-19T00:07:12.336Z,98233.56
2023-02-19T00:08:15.425Z,98238.03
2023-02-19T00:09:19.825Z,98234.00
2023-02-19T00:10:22.734Z,98236.41
2023-02-19T00:11:31.853Z,98237.62
2023-02-19T00:12:34.693Z,98238.47
2023-02-19T00:13:42.625Z,98224.97
2023-02-19T00:14:45.413Z,98225.19
2023-02-19T00:15:48.277Z,98230.28
2023-02-19T00:16:51.283Z,98234.44
2023-02-19T00:17:54.013Z,98225.91
2023-02-19T00:18:58.108Z,98230.56
2023-02-19T00:20:01.177Z,98227.97
2023-02-19T00:21:04.535Z,98222.44
2023-02-19T00:22:07.344Z,98219.53
2023-02-19T00:23:10.176Z,98227.41
2023-02-19T00:24:14.356Z,98215.66
2023-02-19T00:25:17.544Z,98225.03
2023-02-19T00:26:20.941Z,98223.22
2023-02-19T00:27:23.777Z,98226.41
2023-02-19T00:28:27.693Z,98225.13
2023-02-19T00:29:30.617Z,98229.91
2023-02-19T00:30:33.741Z,98229.81
2023-02-19T00:31:36.770Z,98223.34
2023-02-19T00:32:39.812Z,98222.22
2023-02-19T00:33:42.738Z,98225.97
2023-02-19T00:34:45.662Z,98228.78
2023-02-19T00:35:48.478Z,98227.63
2023-02-19T00:36:51.469Z,98222.38
2023-02-19T00:37:54.258Z,98229.00
2023-02-19T00:38:57.561Z,98224.22
2023-02-19T00:40:00.657Z,98229.56
2023-02-19T00:41:19.371Z,98228.59
2023-02-19T00:42:22.221Z,98223.34
2023-02-19T00:43:24.963Z,98216.84
2023-02-19T00:44:28.011Z,98209.91
2023-02-19T00:45:30.903Z,98214.16
2023-02-19T00:46:47.843Z,98222.38
2023-02-19T00:47:50.835Z,98210.06
2023-02-19T00:48:54.504Z,98216.94
2023-02-19T00:49:57.311Z,98213.59
2023-02-19T00:51:00.172Z,98217.47
2023-02-19T00:52:02.873Z,98219.84
2023-02-19T00:53:05.861Z,98214.81
2023-02-19T00:54:08.582Z,98221.88
2023-02-19T00:55:11.578Z,98222.41
2023-02-19T00:56:14.759Z,98222.91
2023-02-19T00:57:17.632Z,98217.94
2023-02-19T00:58:20.515Z,98218.09
2023-02-19T00:59:23.217Z,98222.41
2023-02-19T01:00:26.343Z,98215.53
2023-02-19T01:01:29.267Z,98215.06
2023-02-19T01:02:32.548Z,98210.47
2023-02-19T01:03:36.302Z,98218.09
2023-02-19T01:04:39.367Z,98214.09
2023-02-19T01:05:42.135Z,98213.50
2023-02-19T01:06:45.096Z,98207.06
2023-02-19T01:07:48.022Z,98205.16
2023-02-19T01:08:51.138Z,98217.47
2023-02-19T01:09:54.147Z,98211.88
2023-02-19T01:10:57.375Z,98207.59
2023-02-19T01:12:00.143Z,98212.78
2023-02-19T01:13:02.924Z,98218.44
2023-02-19T01:14:05.896Z,98219.09
2023-02-19T01:15:09.227Z,98217.47
2023-02-19T01:16:21.531Z,98213.16
2023-02-19T01:17:25.181Z,98212.38
2023-02-19T01:18:28.146Z,98207.22
2023-02-19T01:19:30.978Z,98198.53
2023-02-19T01:20:34.800Z,98205.50
2023-02-19T01:21:37.670Z,98207.66
2023-02-19T01:22:40.384Z,98197.69
2023-02-19T01:23:44.430Z,98209.37
2023-02-19T01:24:47.206Z,98204.22
2023-02-19T01:25:50.127Z,98202.28
2023-02-19T01:26:52.958Z,98191.81
2023-02-19T01:27:55.737Z,98193.31
2023-02-19T01:29:00.604Z,98202.56
2023-02-19T01:30:03.977Z,98205.56
2023-02-19T01:31:09.037Z,98203.44
2023-02-19T01:32:13.005Z,98201.00
2023-02-19T01:33:15.916Z,98204.81
2023-02-19T01:34:18.734Z,98198.31
2023-02-19T01:35:21.540Z,98207.88
2023-02-19T01:36:24.835Z,98208.88
2023-02-19T01:37:27.889Z,98212.19
2023-02-19T01:38:31.140Z,98207.78
2023-02-19T01:39:33.895Z,98213.97
2023-02-19T01:40:36.695Z,98207.28
2023-02-19T01:41:41.246Z,98207.88
2023-02-19T01:42:44.508Z,98206.31
2023-02-19T01:44:03.170Z,98200.19
2023-02-19T01:45:34.726Z,98194.13
2023-02-19T01:46:41.174Z,98193.28
2023-02-19T01:47:44.242Z,98188.41
2023-02-19T01:48:47.767Z,98190.94
2023-02-19T01:49:57.418Z,98198.53
2023-02-19T01:51:09.659Z,98194.37
2023-02-19T01:52:22.331Z,98193.03
2023-02-19T01:53:29.919Z,98189.50
2023-02-19T01:54:40.689Z,98195.06
2023-02-19T01:55:47.408Z,98188.44
2023-02-19T01:56:51.568Z,98181.59
2023-02-19T01:57:56.577Z,98192.31
2023-02-19T01:59:00.706Z,98185.59
2023-02-19T02:00:09.357Z,98182.47
2023-02-19T02:01:13.117Z,98190.81
2023-02-19T02:02:16.685Z,98186.87
2023-02-19T02:03:21.000Z,98191.03
2023-02-19T02:04:24.119Z,98185.25
2023-02-19T02:05:49.064Z,98188.00
2023-02-19T02:06:54.428Z,98179.31
2023-02-19T02:08:16.399Z,98175.94
2023-02-19T02:09:40.403Z,98170.56
2023-02-19T02:10:44.228Z,98180.59
2023-02-19T02:11:52.083Z,98185.13
2023-02-19T02:12:58.014Z,98191.47
2023-02-19T02:14:01.006Z,98191.38
2023-02-19T02:15:04.260Z,98185.84
2023-02-19T02:16:16.081Z,98184.91
2023-02-19T02:17:24.858Z,98174.31
2023-02-19T02:18:57.010Z,98175.56
2023-02-19T02:20:14.827Z,98179.81
2023-02-19T02:21:55.659Z,98170.84
2023-02-19T02:23:37.377Z,98180.44
2023-02-19T02:24:42.752Z,98177.50
2023-02-19T02:25:48.091Z,98180.72
2023-02-19T02:27:27.645Z,98172.59
2023-02-19T02:28:47.937Z,98178.47
2023-02-19T02:30:07.426Z,98177.28
2023-02-19T02:31:18.059Z,98171.63
2023-02-19T02:32:27.966Z,98175.72
2023-02-19T02:34:09.290Z,98172.25
2023-02-19T02:35:13.816Z,98183.50
2023-02-19T02:36:25.571Z,98170.91
2023-02-19T02:37:33.881Z,98165.06
2023-02-19T02:38:40.919Z,98157.56
2023-02-19T02:39:46.922Z,98173.38
2023-02-19T02:40:50.468Z,98180.25
2023-02-19T02:42:18.999Z,98167.94
2023-02-19T02:43:22.095Z,98170.84
2023-02-19T02:44:34.816Z,98170.47
2023-02-19T02:45:39.959Z,98172.41
2023-02-19T02:46:45.915Z,98169.91
2023-02-19T02:47:57.142Z,98160.97
2023-02-19T02:49:17.540Z,98171.19
2023-02-19T02:50:27.839Z,98173.47
2023-02-19T02:51:45.481Z,98164.56
2023-02-19T02:53:11.597Z,98161.12
2023-02-19T02:54:43.067Z,98166.47
2023-02-19T02:55:49.931Z,98174.59
2023-02-19T02:56:55.095Z,98169.72
2023-02-19T02:57:59.343Z,98168.59
2023-02-19T02:59:06.329Z,98159.97
2023-02-19T03:00:10.025Z,98163.72
2023-02-19T03:01:39.849Z,98172.75
2023-02-19T03:02:44.297Z,98171.03
2023-02-19T03:03:52.040Z,98167.59
2023-02-19T03:05:32.129Z,98168.84
2023-02-19T03:06:38.090Z,98168.59
2023-02-19T03:07:54.958Z,98150.56
2023-02-19T03:09:40.993Z,98157.78
2023-02-19T03:10:58.587Z,98161.38
2023-02-19T03:12:24.275Z,98165.50
2023-02-19T03:13:53.203Z,98158.53
2023-02-19T03:15:20.805Z,98164.37
2023-02-19T03:16:47.696Z,98164.53
2023-02-19T03:18:18.238Z,98161.44
2023-02-19T03:19:25.224Z,98159.66
2023-02-19T03:20:30.293Z,98162.91
2023-02-19T03:21:38.511Z,98160.59
2023-02-19T03:22:45.140Z,98154.41
2023-02-19T03:24:08.256Z,98156.47
2023-02-19T03:25:37.740Z,98161.81
2023-02-19T03:26:44.303Z,98167.38
2023-02-19T03:27:49.738Z,98168.41
2023-02-19T03:29:13.181Z,98169.78
2023-02-19T03:30:21.265Z,98168.59
2023-02-19T03:31:28.057Z,98161.81
2023-02-19T03:32:53.481Z,98162.72
2023-02-19T03:34:00.129Z,98158.06
2023-02-19T03:35:28.166Z,98156.25
2023-02-19T03:36:38.512Z,98158.41
2023-02-19T03:38:02.874Z,98164.44
2023-02-19T03:39:09.331Z,98165.50
2023-02-19T03:40:13.225Z,98168.66
2023-02-19T03:41:36.316Z,98168.16
2023-02-19T03:43:03.775Z,98171.84
2023-02-19T03:44:17.671Z,98171.03
2023-02-19T03:45:36.503Z,98172.81
2023-02-19T03:46:55.463Z,98173.88
2023-02-19T03:48:20.624Z,98166.09
2023-02-19T03:49:49.469Z,98165.59
2023-02-19T03:51:05.350Z,98166.41
2023-02-19T03:52:10.974Z,98167.00
2023-02-19T03:53:59.988Z,98167.78
2023-02-19T03:55:18.103Z,98165.34
2023-02-19T03:57:00.061Z,98163.31
2023-02-19T03:58:28.669Z,98157.13
2023-02-19T03:59:37.901Z,98157.84
2023-02-19T04:01:14.082Z,98163.09
2023-02-19T04:02:26.609Z,98155.44
2023-02-19T04:03:35.620Z,98157.22
2023-02-19T04:04:44.855Z,98160.69
2023-02-19T04:05:55.499Z,98165.94
2023-02-19T04:06:58.980Z,98163.66
2023-02-19T04:08:11.498Z,98167.25
2023-02-19T04:09:16.548Z,98168.28
2023-02-19T04:10:20.780Z,98162.56
2023-02-19T04:11:25.578Z,98165.16
2023-02-19T04:12:29.900Z,98164.66
2023-02-19T04:13:38.707Z,98161.38
2023-02-19T04:14:47.750Z,98162.22
2023-02-19T04:15:54.556Z,98162.16
2023-02-19T04:17:03.428Z,98169.91
2023-02-19T04:18:24.142Z,98174.44
2023-02-19T04:19:29.217Z,98169.22
2023-02-19T04:20:37.742Z,98163.50
2023-02-19T04:21:42.354Z,98165.84
2023-02-19T04:22:45.587Z,98179.16
2023-02-19T04:23:49.184Z,98169.28
2023-02-19T04:24:55.658Z,98175.81
2023-02-19T04:26:01.623Z,98166.16
2023-02-19T04:27:06.102Z,98169.56
2023-02-19T04:28:10.991Z,98164.91
2023-02-19T04:29:14.001Z,98170.34
2023-02-19T04:30:18.073Z,98163.06
2023-02-19T04:31:21.297Z,98167.00
2023-02-19T04:32:24.480Z,98175.22
2023-02-19T04:33:27.399Z,98179.09
2023-02-19T04:34:30.387Z,98182.41
2023-02-19T04:35:33.334Z,98182.50
2023-02-19T04:36:36.401Z,98180.50
2023-02-19T04:37:39.277Z,98181.59
2023-02-19T04:38:42.094Z,98175.88
2023-02-19T04:39:45.575Z,98173.03
2023-02-19T04:40:49.184Z,98168.16
2023-02-19T04:41:52.009Z,98169.75
2023-02-19T04:42:54.786Z,98167.44
2023-02-19T04:43:57.599Z,98170.84
2023-02-19T04:45:00.359Z,98173.88
2023-02-19T04:46:03.460Z,98172.37
2023-02-19T04:47:06.654Z,98176.84
2023-02-19T04:48:09.760Z,98184.94
2023-02-19T04:49:12.753Z,98191.19
2023-02-19T04:50:15.654Z,98203.34
2023-02-19T04:51:18.659Z,98194.34
2023-02-19T04:52:21.507Z,98194.06
2023-02-19T04:53:24.463Z,98197.53
2023-02-19T04:54:27.395Z,98191.03
2023-02-19T04:55:30.197Z,98197.78
2023-02-19T04:56:33.363Z,98189.31
2023-02-19T04:57:36.367Z,98188.69
2023-02-19T04:58:40.803Z,98187.75
2023-02-19T04:59:43.568Z,98176.25
2023-02-19T05:00:46.674Z,98176.16
2023-02-19T05:01:49.790Z,98164.78
2023-02-19T05:02:52.736Z,98172.03
2023-02-19T05:03:55.616Z,98171.94
2023-02-19T05:04:58.372Z,98168.09
2023-02-19T05:06:06.576Z,98166.38
2023-02-19T05:07:09.423Z,98166.13
2023-02-19T05:08:12.382Z,98169.13
2023-02-19T05:09:15.487Z,98179.50
2023-02-19T05:10:18.677Z,98174.81
2023-02-19T05:11:24.055Z,98163.87
2023-02-19T05:12:27.241Z,98171.44
2023-02-19T05:13:30.741Z,98169.47
2023-02-19T05:14:33.559Z,98166.59
2023-02-19T05:15:37.874Z,98167.66
2023-02-19T05:16:40.660Z,98167.81
2023-02-19T05:17:43.552Z,98166.63
2023-02-19T05:18:47.368Z,98168.09
2023-02-19T05:19:50.410Z,98171.16
2023-02-19T05:20:53.290Z,98175.69
2023-02-19T05:21:56.125Z,98173.88
2023-02-19T05:22:58.935Z,98171.72
2023-02-19T05:24:01.735Z,98176.12
2023-02-19T05:25:05.042Z,98171.16
2023-02-19T05:26:21.206Z,98171.75
2023-02-19T05:27:24.045Z,98179.50
2023-02-19T05:28:29.239Z,98175.09
2023-02-19T05:29:32.697Z,98176.88
2023-02-19T05:30:35.898Z,98171.53
2023-02-19T05:31:39.027Z,98174.28
2023-02-19T05:32:41.894Z,98175.88
2023-02-19T05:33:45.973Z,98173.91
2023-02-19T05:34:48.952Z,98177.13
2023-02-19T05:35:55.124Z,98176.91
2023-02-19T05:36:58.369Z,98164.72
2023-02-19T05:38:01.188Z,98171.72
2023-02-19T05:39:06.369Z,98165.94
2023-02-19T05:40:09.570Z,98162.09
2023-02-19T05:41:18.820Z,98167.03
2023-02-19T05:42:21.767Z,98164.97
2023-02-19T05:43:24.531Z,98161.59
2023-02-19T05:44:27.500Z,98162.88
2023-02-19T05:45:30.908Z,98168.34
2023-02-19T05:46:33.990Z,98169.44
2023-02-19T05:47:36.847Z,98174.97
2023-02-19T05:48:39.926Z,98177.56
2023-02-19T05:49:42.695Z,98179.44
2023-02-19T05:50:45.547Z,98186.75
2023-02-19T05:51:51.468Z,98188.06
2023-02-19T05:52:54.371Z,98189.13
2023-02-19T05:53:57.503Z,98180.53
2023-02-19T05:55:00.609Z,98177.63
2023-02-19T05:56:03.845Z,98178.13
2023-02-19T05:57:07.027Z,98183.12
2023-02-19T05:58:09.763Z,98185.41
2023-02-19T05:59:15.132Z,98189.00
2023-02-19T06:00:19.678Z,98187.34
2023-02-19T06:01:25.263Z,98185.47
2023-02-19T06:02:28.228Z,98186.34
2023-02-19T06:03:31.132Z,98190.28
2023-02-19T06:04:34.069Z,98191.78
2023-02-19T06:05:37.812Z,98183.09
2023-02-19T06:06:41.549Z,98187.84
2023-02-19T06:07:44.781Z,98199.09
2023-02-19T06:08:51.097Z,98197.25
2023-02-19T06:09:54.077Z,98186.31
2023-02-19T06:10:56.830Z,98189.94
2023-02-19T06:11:59.589Z,98188.47
2023-02-19T06:13:02.310Z,98183.06
2023-02-19T06:14:05.521Z,98187.66
2023-02-19T06:15:08.532Z,98180.97
2023-02-19T06:16:11.756Z,98174.53
2023-02-19T06:17:14.868Z,98178.13
2023-02-19T06:18:17.753Z,98179.09
2023-02-19T06:19:21.194Z,98173.38
2023-02-19T06:20:26.025Z,98177.31
2023-02-19T06:21:29.133Z,98170.91
2023-02-19T06:22:31.864Z,98183.75
2023-02-19T06:23:35.140Z,98167.59
2023-02-19T06:24:37.905Z,98169.00
2023-02-19T06:25:40.640Z,98169.78
2023-02-19T06:26:43.681Z,98173.41
2023-02-19T06:27:46.856Z,98169.69
2023-02-19T06:28:51.135Z,98168.72
2023-02-19T06:29:54.223Z,98165.25
2023-02-19T06:30:59.339Z,98168.38
2023-02-19T06:32:02.440Z,98165.34
2023-02-19T06:33:05.230Z,98172.09
2023-02-19T06:34:07.958Z,98165.59
2023-02-19T06:35:10.713Z,98168.00
2023-02-19T06:36:16.068Z,98165.91
2023-02-19T06:37:18.966Z,98171.50
2023-02-19T06:38:22.538Z,98166.78
2023-02-19T06:39:25.620Z,98158.69
2023-02-19T06:40:28.343Z,98165.69
2023-02-19T06:41:31.122Z,98161.75
2023-02-19T06:42:33.993Z,98158.66
2023-02-19T06:43:36.811Z,98154.88
2023-02-19T06:44:39.615Z,98148.63
2023-02-19T06:45:42.598Z,98150.94
2023-02-19T06:46:45.668Z,98156.19
2023-02-19T06:47:48.963Z,98158.53
2023-02-19T06:48:51.864Z,98159.16
2023-02-19T06:49:54.733Z,98157.50
2023-02-19T06:50:57.560Z,98163.66
2023-02-19T06:52:00.844Z,98163.66
2023-02-19T06:53:03.804Z,98159.06
2023-02-19T06:54:06.622Z,98161.44
2023-02-19T06:55:09.709Z,98153.72
2023-02-19T06:56:31.870Z,98152.06
2023-02-19T06:57:34.770Z,98151.91
2023-02-19T06:58:37.492Z,98150.56
2023-02-19T06:59:40.183Z,98152.34
2023-02-19T07:00:42.963Z,98147.72
2023-02-19T07:01:46.653Z,98157.06
2023-02-19T07:02:50.123Z,98153.56
2023-02-19T07:03:53.791Z,98155.31
2023-02-19T07:04:56.917Z,98159.25
2023-02-19T07:06:01.003Z,98158.44
2023-02-19T07:07:04.861Z,98159.03
2023-02-19T07:08:07.768Z,98155.31
2023-02-19T07:09:14.793Z,98156.94
2023-02-19T07:10:18.234Z,98168.22
2023-02-19T07:11:20.949Z,98160.62
2023-02-19T07:12:24.111Z,98164.81
2023-02-19T07:13:27.971Z,98158.06
2023-02-19T07:14:30.992Z,98162.22
2023-02-19T07:15:33.795Z,98150.50
2023-02-19T07:16:37.025Z,98158.06
2023-02-19T07:17:39.889Z,98161.31
2023-02-19T07:18:43.162Z,98161.38
2023-02-19T07:19:45.945Z,98161.09
2023-02-19T07:20:48.714Z,98151.72
2023-02-19T07:21:51.710Z,98158.28
2023-02-19T07:22:55.053Z,98147.63
2023-02-19T07:23:58.620Z,98156.66
2023-02-19T07:25:01.281Z,98150.06
2023-02-19T07:26:05.466Z,98158.44
2023-02-19T07:27:08.447Z,98159.03
2023-02-19T07:28:11.372Z,98158.78
2023-02-19T07:29:14.206Z,98156.69
2023-02-19T07:30:17.338Z,98153.81
2023-02-19T07:31:22.987Z,98145.56
2023-02-19T07:32:25.768Z,98148.44
2023-02-19T07:33:28.881Z,98147.09
2023-02-19T07:34:31.673Z,98145.97
2023-02-19T07:35:34.463Z,98150.47
2023-02-19T07:36:37.416Z,98147.41
2023-02-19T07:37:41.493Z,98143.75
2023-02-19T07:38:45.271Z,98141.63
2023-02-19T07:39:48.227Z,98139.38
2023-02-19T07:41:00.228Z,98138.06
2023-02-19T07:42:03.248Z,98139.78
2023-02-19T07:43:06.000Z,98129.09
2023-02-19T07:44:08.882Z,98130.62
2023-02-19T07:45:11.657Z,98134.37
2023-02-19T07:46:14.649Z,98142.38
2023-02-19T07:47:18.089Z,98132.47
2023-02-19T07:48:22.608Z,98131.66
2023-02-19T07:49:25.377Z,98133.69
2023-02-19T07:50:28.550Z,98136.44
2023-02-19T07:51:31.866Z,98132.63
2023-02-19T07:52:34.673Z,98141.66
2023-02-19T07:53:37.780Z,98146.03
2023-02-19T07:54:40.642Z,98143.09
2023-02-19T07:55:43.493Z,98149.56
2023-02-19T07:56:46.603Z,98151.84
2023-02-19T07:57:49.366Z,98153.19
2023-02-19T07:58:52.239Z,98160.25
2023-02-19T07:59:55.061Z,98156.16
2023-02-19T08:00:58.162Z,98158.47
2023-02-19T08:02:19.262Z,98154.31
2023-02-19T08:03:22.241Z,98164.22
2023-02-19T08:04:24.991Z,98168.66
2023-02-19T08:05:33.652Z,98180.25
2023-02-19T08:06:36.772Z,98169.66
2023-02-19T08:07:39.722Z,98183.06
2023-02-19T08:08:43.227Z,98183.56
2023-02-19T08:10:06.016Z,98180.09
2023-02-19T08:11:28.744Z,98177.25
2023-02-19T08:12:57.401Z,98189.91
2023-02-19T08:14:00.050Z,98185.34
2023-02-19T08:15:02.805Z,98190.72
2023-02-19T08:16:16.922Z,98184.00
2023-02-19T08:17:20.170Z,98188.25
2023-02-19T08:18:27.795Z,98198.16
2023-02-19T08:19:30.628Z,98197.09
2023-02-19T08:20:33.701Z,98200.38
2023-02-19T08:21:36.556Z,98197.47
2023-02-19T08:22:39.384Z,98198.81
2023-02-19T08:23:42.385Z,98206.44
2023-02-19T08:24:45.634Z,98202.66
2023-02-19T08:25:49.721Z,98208.44
2023-02-19T08:26:52.598Z,98204.72
2023-02-19T08:27:56.127Z,98211.38
2023-02-19T08:28:59.275Z,98216.06
2023-02-19T08:30:02.334Z,98203.63
2023-02-19T08:31:07.760Z,98203.59
2023-02-19T08:32:10.925Z,98205.16
2023-02-19T08:33:16.830Z,98195.53
2023-02-19T08:34:19.627Z,98199.19
2023-02-19T08:35:22.677Z,98194.22
2023-02-19T08:36:26.432Z,98202.22
2023-02-19T08:37:32.448Z,98197.00
2023-02-19T08:38:36.674Z,98200.94
2023-02-19T08:39:39.603Z,98182.31
2023-02-19T08:40:43.061Z,98192.78
2023-02-19T08:41:45.973Z,98187.53
2023-02-19T08:42:48.929Z,98187.25
2023-02-19T08:43:51.603Z,98185.28
2023-02-19T08:44:55.046Z,98186.59
2023-02-19T08:45:57.826Z,98196.19
2023-02-19T08:47:00.922Z,98181.91
2023-02-19T08:48:04.528Z,98186.56
2023-02-19T08:49:07.454Z,98192.03
2023-02-19T08:50:11.507Z,98188.66
2023-02-19T08:51:14.697Z,98192.81
2023-02-19T08:52:17.710Z,98190.97
2023-02-19T08:53:20.620Z,98180.53
2023-02-19T08:54:23.423Z,98178.94
2023-02-19T08:55:26.487Z,98191.50
2023-02-19T08:56:29.660Z,98187.25
2023-02-19T08:57:35.609Z,98192.72
2023-02-19T08:58:39.304Z,98189.72
2023-02-19T08:59:42.145Z,98190.72
2023-02-19T09:00:45.506Z,98192.25
2023-02-19T09:01:48.449Z,98185.16
2023-02-19T09:02:51.460Z,98196.19
2023-02-19T09:03:54.238Z,98194.06
2023-02-19T09:04:57.181Z,98193.59
2023-02-19T09:05:59.940Z,98194.44
2023-02-19T09:07:02.944Z,98199.63
2023-02-19T09:08:05.817Z,98201.94
2023-02-19T09:09:09.047Z,98199.53
2023-02-19T09:10:13.884Z,98191.22
2023-02-19T09:11:17.417Z,98194.00
2023-02-19T09:12:20.601Z,98193.31
2023-02-19T09:13:23.564Z,98197.78
2023-02-19T09:14:26.531Z,98192.88
2023-02-19T09:15:29.910Z,98201.00
2023-02-19T09:16:32.923Z,98197.25
2023-02-19T09:17:36.023Z,98197.78
2023-02-19T09:18:39.036Z,98196.88
2023-02-19T09:19:42.140Z,98198.09
2023-02-19T09:20:45.109Z,98199.47
2023-02-19T09:21:48.176Z,98197.09
2023-02-19T09:22:56.469Z,98199.69
2023-02-19T09:23:59.498Z,98198.41
2023-02-19T09:25:03.013Z,98196.53
2023-02-19T09:26:08.936Z,98190.25
2023-02-19T09:27:20.070Z,98197.59
2023-02-19T09:28:28.684Z,98201.00
2023-02-19T09:29:31.736Z,98195.25
2023-02-19T09:30:34.729Z,98192.97
2023-02-19T09:31:38.324Z,98192.47
2023-02-19T09:32:41.279Z,98197.94
2023-02-19T09:33:48.773Z,98184.38
2023-02-19T09:34:51.932Z,98186.09
2023-02-19T09:35:54.978Z,98186.31
2023-02-19T09:36:57.892Z,98184.91
2023-02-19T09:38:02.410Z,98183.41
2023-02-19T09:39:08.309Z,98190.09
2023-02-19T09:40:12.261Z,98191.66
2023-02-19T09:41:28.267Z,98191.06
2023-02-19T09:42:33.144Z,98177.88
2023-02-19T09:43:36.530Z,98178.59
2023-02-19T09:44:43.699Z,98188.44
2023-02-19T09:45:47.662Z,98179.66
2023-02-19T09:46:53.402Z,98179.50
2023-02-19T09:47:58.513Z,98183.31
2023-02-19T09:49:15.168Z,98192.22
2023-02-19T09:50:22.777Z,98189.44
2023-02-19T09:51:29.357Z,98183.88
2023-02-19T09:52:54.501Z,98178.09
2023-02-19T09:53:58.524Z,98180.37
2023-02-19T09:55:14.082Z,98179.28
2023-02-19T09:56:17.922Z,98183.00
2023-02-19T09:57:24.151Z,98183.59
2023-02-19T09:58:48.801Z,98174.31
2023-02-19T10:00:06.198Z,98179.13
2023-02-19T10:01:12.655Z,98176.66
2023-02-19T10:02:19.093Z,98175.25
2023-02-19T10:03:39.453Z,98181.66
2023-02-19T10:04:44.529Z,98180.37
2023-02-19T10:05:48.424Z,98172.94
2023-02-19T10:06:53.249Z,98172.81
2023-02-19T10:07:59.902Z,98173.03
2023-02-19T10:09:26.063Z,98165.19
2023-02-19T10:10:35.499Z,98168.84
2023-02-19T10:11:39.146Z,98167.47
2023-02-19T10:12:52.256Z,98155.25
2023-02-19T10:14:28.732Z,98153.09
2023-02-19T10:15:57.600Z,98147.81
2023-02-19T10:17:05.314Z,98156.50
2023-02-19T10:18:11.179Z,98147.19
2023-02-19T10:19:16.604Z,98157.56
2023-02-19T10:20:27.147Z,98158.63
2023-02-19T10:21:30.890Z,98158.03
2023-02-19T10:22:38.069Z,98152.28
2023-02-19T10:23:42.126Z,98154.72
2023-02-19T10:24:49.725Z,98143.63
2023-02-19T10:25:58.094Z,98154.59
2023-02-19T10:27:01.285Z,98148.50
2023-02-19T10:28:06.721Z,98154.94
2023-02-19T10:29:11.303Z,98144.00
2023-02-19T10:30:22.000Z,98142.59
2023-02-19T10:31:26.014Z,98140.03
2023-02-19T10:32:30.021Z,98140.41
2023-02-19T10:33:58.544Z,98138.69
2023-02-19T10:35:10.530Z,98128.72
2023-02-19T10:36:33.717Z,98133.53
2023-02-19T10:37:45.151Z,98131.75
2023-02-19T10:38:48.340Z,98135.03
2023-02-19T10:39:51.726Z,98140.16
2023-02-19T10:41:02.546Z,98127.88
2023-02-19T10:42:06.816Z,98117.91
2023-02-19T10:43:22.900Z,98125.75
2023-02-19T10:44:28.640Z,98113.72
2023-02-19T10:45:48.802Z,98114.91
2023-02-19T10:46:57.434Z,98106.91
2023-02-19T10:48:03.445Z,98103.47
2023-02-19T10:49:20.719Z,98116.78
2023-02-19T10:50:56.336Z,98106.28
2023-02-19T10:52:22.749Z,98117.38
2023-02-19T10:53:49.400Z,98120.69
2023-02-19T10:54:58.589Z,98116.50
2023-02-19T10:56:12.660Z,98116.19
2023-02-19T10:57:26.301Z,98115.66
2023-02-19T10:58:29.546Z,98116.63
2023-02-19T10:59:32.536Z,98108.41
2023-02-19T11:00:36.367Z,98113.28
2023-02-19T11:01:58.844Z,98109.50
2023-02-19T11:03:24.234Z,98102.69
2023-02-19T11:04:30.215Z,98105.03
2023-02-19T11:05:34.008Z,98104.94
2023-02-19T11:06:37.592Z,98110.66
2023-02-19T11:07:50.730Z,98096.06
2023-02-19T11:08:59.945Z,98102.81
2023-02-19T11:10:06.069Z,98100.50
2023-02-19T11:11:10.957Z,98084.50
2023-02-19T11:12:23.584Z,98108.56
2023-02-19T11:13:33.155Z,98105.47
2023-02-19T11:14:36.850Z,98101.34
2023-02-19T11:15:41.975Z,98104.13
2023-02-19T11:16:52.278Z,98099.50
2023-02-19T11:18:10.809Z,98111.69
2023-02-19T11:19:28.934Z,98096.69
2023-02-19T11:20:33.096Z,98102.63
2023-02-19T11:21:36.594Z,98087.87
2023-02-19T11:22:42.325Z,98100.72
2023-02-19T11:23:47.402Z,98099.75
2023-02-19T11:24:55.905Z,98110.72
2023-02-19T11:26:05.039Z,98105.84
2023-02-19T11:27:18.551Z,98099.16
2023-02-19T11:28:39.267Z,98105.75
2023-02-19T11:29:43.557Z,98092.31
2023-02-19T11:30:48.060Z,98088.44
2023-02-19T11:31:51.987Z,98087.94
2023-02-19T11:32:55.250Z,98077.66
2023-02-19T11:34:21.342Z,98080.09
2023-02-19T11:35:25.457Z,98081.59
2023-02-19T11:36:37.121Z,98078.06
2023-02-19T11:38:00.756Z,98071.47
2023-02-19T11:39:19.018Z,98065.41
2023-02-19T11:40:31.043Z,98063.13
2023-02-19T11:41:34.966Z,98056.59
2023-02-19T11:42:53.739Z,98058.84
2023-02-19T11:44:21.884Z,98056.09
2023-02-19T11:45:36.356Z,98051.78
2023-02-19T11:47:02.178Z,98053.66
2023-02-19T11:48:24.391Z,98043.22
2023-02-19T11:50:05.824Z,98047.28
2023-02-19T11:51:22.972Z,98043.88
2023-02-19T11:52:55.155Z,98048.56
2023-02-19T11:54:09.440Z,98051.13
2023-02-19T11:55:42.257Z,98049.19
2023-02-19T11:56:55.826Z,98043.09
2023-02-19T11:58:14.980Z,98045.28
2023-02-19T11:59:26.232Z,98052.94
2023-02-19T12:00:45.593Z,98043.16
2023-02-19T12:02:18.464Z,98045.19
2023-02-19T12:03:44.092Z,98038.53
2023-02-19T12:05:01.263Z,98028.34
2023-02-19T12:06:40.466Z,98027.25
2023-02-19T12:08:18.412Z,98026.91
2023-02-19T12:09:35.826Z,98017.63
2023-02-19T12:10:59.719Z,98004.16
2023-02-19T12:12:48.864Z,98014.97
2023-02-19T12:14:13.380Z,98013.16
2023-02-19T12:15:34.189Z,98009.88
2023-02-19T12:17:17.930Z,97997.97
2023-02-19T12:18:42.798Z,98002.25
2023-02-19T12:20:16.876Z,98008.75
2023-02-19T12:21:55.016Z,98002.13
2023-02-19T12:23:19.165Z,97999.34
2023-02-19T12:24:40.737Z,97994.66
2023-02-19T12:25:50.209Z,97995.94
2023-02-19T12:27:17.296Z,97997.13
2023-02-19T12:28:46.252Z,97995.25
2023-02-19T12:30:02.431Z,97997.75
2023-02-19T12:31:28.945Z,98004.63
2023-02-19T12:33:00.046Z,97987.53
2023-02-19T12:34:34.500Z,97995.22
2023-02-19T12:35:50.982Z,97998.19
2023-02-19T12:37:01.177Z,97983.53
2023-02-19T12:38:33.697Z,97980.59
2023-02-19T12:40:24.847Z,97993.88
2023-02-19T12:41:46.791Z,97980.06
2023-02-19T12:43:12.016Z,98003.94
2023-02-19T12:44:18.418Z,97987.22
2023-02-19T12:45:37.305Z,97993.41
2023-02-19T12:46:46.425Z,97987.22
2023-02-19T12:48:11.347Z,97993.31
2023-02-19T12:49:47.289Z,97981.53
2023-02-19T12:51:17.541Z,97993.50
2023-02-19T12:52:28.027Z,98004.56
2023-02-19T12:53:43.910Z,97999.59
2023-02-19T12:54:52.539Z,97992.69
2023-02-19T12:55:59.830Z,97988.50
2023-02-19T12:57:06.408Z,97994.31
2023-02-19T12:58:45.488Z,97997.50
2023-02-19T12:59:53.277Z,97994.63
2023-02-19T13:01:01.063Z,97990.31
2023-02-19T13:02:24.955Z,97990.53
2023-02-19T13:03:40.908Z,97990.28
2023-02-19T13:04:57.663Z,97986.56
2023-02-19T13:06:22.641Z,97982.59
2023-02-19T13:07:49.799Z,97993.12
2023-02-19T13:09:06.677Z,97991.91
2023-02-19T13:10:27.714Z,97993.16
2023-02-19T13:11:36.880Z,97986.06
2023-02-19T13:12:46.375Z,97973.41
2023-02-19T13:13:57.875Z,97974.03
2023-02-19T13:15:06.531Z,97963.94
2023-02-19T13:16:18.488Z,97977.56
2023-02-19T13:17:40.646Z,97949.13
2023-02-19T13:18:49.141Z,97958.06
2023-02-19T13:20:02.267Z,97951.53
2023-02-19T13:21:06.451Z,97954.66
2023-02-19T13:22:43.986Z,97954.03
2023-02-19T13:23:59.708Z,97958.06
2023-02-19T13:25:04.365Z,97948.16
2023-02-19T13:26:24.595Z,97957.97
2023-02-19T13:27:31.191Z,97950.44